sensor_id;sensor_type;location;lat;lon;timestamp;temperature;humidity
78461;SHT31;67755;51.986;5.696;2024-03-02T00:01:39;11.6;56.2
78461;SHT31;67755;51.986;5.696;2024-03-02T00:04:08;11.6;55.9
78461;SHT31;67755;51.986;5.696;2024-03-02T00:06:37;11.6;56.3
78461;SHT31;67755;51.986;5.696;2024-03-02T00:09:09;11.7;56.1
78461;SHT31;67755;51.986;5.696;2024-03-02T00:11:39;11.7;56.2
78461;SHT31;67755;51.986;5.696;2024-03-02T00:14:08;11.7;56.3
78461;SHT31;67755;51.986;5.696;2024-03-02T00:16:38;11.7;57.0
78461;SHT31;67755;51.986;5.696;2024-03-02T00:19:09;11.7;56.5
78461;SHT31;67755;51.986;5.696;2024-03-02T00:21:39;11.7;56.3
78461;SHT31;67755;51.986;5.696;2024-03-02T00:24:20;11.7;56.2
78461;SHT31;67755;51.986;5.696;2024-03-02T00:26:49;11.7;56.0
78461;SHT31;67755;51.986;5.696;2024-03-02T00:29:20;11.7;56.1
78461;SHT31;67755;51.986;5.696;2024-03-02T00:31:48;11.7;55.8
78461;SHT31;67755;51.986;5.696;2024-03-02T00:34:17;11.7;56.3
78461;SHT31;67755;51.986;5.696;2024-03-02T00:36:47;11.7;56.5
78461;SHT31;67755;51.986;5.696;2024-03-02T00:39:17;11.7;56.6
78461;SHT31;67755;51.986;5.696;2024-03-02T00:41:47;11.7;56.2
78461;SHT31;67755;51.986;5.696;2024-03-02T00:44:23;11.7;55.7
78461;SHT31;67755;51.986;5.696;2024-03-02T00:46:53;11.7;56.4
78461;SHT31;67755;51.986;5.696;2024-03-02T00:49:23;11.8;56.4
78461;SHT31;67755;51.986;5.696;2024-03-02T00:51:54;11.8;56.1
78461;SHT31;67755;51.986;5.696;2024-03-02T00:54:25;11.8;56.2
78461;SHT31;67755;51.986;5.696;2024-03-02T00:56:55;11.8;55.7
78461;SHT31;67755;51.986;5.696;2024-03-02T00:59:24;11.8;56.0
78461;SHT31;67755;51.986;5.696;2024-03-02T01:01:53;11.8;55.9
78461;SHT31;67755;51.986;5.696;2024-03-02T01:04:21;11.8;56.4
78461;SHT31;67755;51.986;5.696;2024-03-02T01:06:50;11.8;56.7
78461;SHT31;67755;51.986;5.696;2024-03-02T01:09:18;11.8;57.5
78461;SHT31;67755;51.986;5.696;2024-03-02T01:11:47;11.8;57.9
78461;SHT31;67755;51.986;5.696;2024-03-02T01:14:16;11.8;58.1
78461;SHT31;67755;51.986;5.696;2024-03-02T01:16:44;11.8;58.6
78461;SHT31;67755;51.986;5.696;2024-03-02T01:19:13;11.8;58.8
78461;SHT31;67755;51.986;5.696;2024-03-02T01:21:41;11.8;59.0
78461;SHT31;67755;51.986;5.696;2024-03-02T01:24:10;11.8;59.2
78461;SHT31;67755;51.986;5.696;2024-03-02T01:26:39;11.8;59.5
78461;SHT31;67755;51.986;5.696;2024-03-02T01:29:08;11.8;59.5
78461;SHT31;67755;51.986;5.696;2024-03-02T01:31:36;11.8;59.2
78461;SHT31;67755;51.986;5.696;2024-03-02T01:34:07;11.8;59.2
78461;SHT31;67755;51.986;5.696;2024-03-02T01:36:36;11.9;59.6
78461;SHT31;67755;51.986;5.696;2024-03-02T01:39:04;11.9;60.0
78461;SHT31;67755;51.986;5.696;2024-03-02T01:41:35;11.9;60.2
78461;SHT31;67755;51.986;5.696;2024-03-02T01:44:04;11.9;60.1
78461;SHT31;67755;51.986;5.696;2024-03-02T01:46:33;11.9;59.3
78461;SHT31;67755;51.986;5.696;2024-03-02T01:49:02;11.9;59.2
78461;SHT31;67755;51.986;5.696;2024-03-02T01:51:31;11.8;59.1
78461;SHT31;67755;51.986;5.696;2024-03-02T01:53:59;11.8;59.3
78461;SHT31;67755;51.986;5.696;2024-03-02T01:56:28;11.8;59.9
78461;SHT31;67755;51.986;5.696;2024-03-02T01:58:58;11.8;59.8
78461;SHT31;67755;51.986;5.696;2024-03-02T02:01:27;11.8;60.1
78461;SHT31;67755;51.986;5.696;2024-03-02T02:03:55;11.8;59.5
78461;SHT31;67755;51.986;5.696;2024-03-02T02:06:24;11.8;60.0
78461;SHT31;67755;51.986;5.696;2024-03-02T02:08:53;11.8;60.1
78461;SHT31;67755;51.986;5.696;2024-03-02T02:11:23;11.8;60.3
78461;SHT31;67755;51.986;5.696;2024-03-02T02:13:52;11.8;60.3
78461;SHT31;67755;51.986;5.696;2024-03-02T02:16:22;11.8;60.2
78461;SHT31;67755;51.986;5.696;2024-03-02T02:18:51;11.8;60.3
78461;SHT31;67755;51.986;5.696;2024-03-02T02:21:24;11.8;60.1
78461;SHT31;67755;51.986;5.696;2024-03-02T02:23:53;11.8;60.0
78461;SHT31;67755;51.986;5.696;2024-03-02T02:26:22;11.8;60.4
78461;SHT31;67755;51.986;5.696;2024-03-02T02:28:51;11.8;60.3
78461;SHT31;67755;51.986;5.696;2024-03-02T02:31:19;11.8;60.2
78461;SHT31;67755;51.986;5.696;2024-03-02T02:33:48;11.8;60.2
78461;SHT31;67755;51.986;5.696;2024-03-02T02:36:16;11.7;59.7
78461;SHT31;67755;51.986;5.696;2024-03-02T02:38:48;11.7;60.0
78461;SHT31;67755;51.986;5.696;2024-03-02T02:41:17;11.7;59.7
78461;SHT31;67755;51.986;5.696;2024-03-02T02:43:46;11.7;60.4
78461;SHT31;67755;51.986;5.696;2024-03-02T02:46:14;11.7;60.9
78461;SHT31;67755;51.986;5.696;2024-03-02T02:48:43;11.7;61.5
78461;SHT31;67755;51.986;5.696;2024-03-02T02:51:11;11.7;61.6
78461;SHT31;67755;51.986;5.696;2024-03-02T02:53:40;11.7;62.3
78461;SHT31;67755;51.986;5.696;2024-03-02T02:56:09;11.7;62.6
78461;SHT31;67755;51.986;5.696;2024-03-02T02:58:39;11.7;62.5
78461;SHT31;67755;51.986;5.696;2024-03-02T03:01:08;11.7;63.0
78461;SHT31;67755;51.986;5.696;2024-03-02T03:03:36;11.7;62.7
78461;SHT31;67755;51.986;5.696;2024-03-02T03:06:05;11.6;62.6
78461;SHT31;67755;51.986;5.696;2024-03-02T03:08:33;11.6;63.4
78461;SHT31;67755;51.986;5.696;2024-03-02T03:11:02;11.6;63.4
78461;SHT31;67755;51.986;5.696;2024-03-02T03:13:31;11.6;63.6
78461;SHT31;67755;51.986;5.696;2024-03-02T03:16:00;11.6;63.2
78461;SHT31;67755;51.986;5.696;2024-03-02T03:18:29;11.6;63.4
78461;SHT31;67755;51.986;5.696;2024-03-02T03:20:57;11.5;62.9
78461;SHT31;67755;51.986;5.696;2024-03-02T03:23:26;11.5;63.1
78461;SHT31;67755;51.986;5.696;2024-03-02T03:25:55;11.5;62.8
78461;SHT31;67755;51.986;5.696;2024-03-02T03:28:23;11.5;63.1
78461;SHT31;67755;51.986;5.696;2024-03-02T03:30:52;11.4;62.4
78461;SHT31;67755;51.986;5.696;2024-03-02T03:33:20;11.4;63.0
78461;SHT31;67755;51.986;5.696;2024-03-02T03:35:49;11.4;62.9
78461;SHT31;67755;51.986;5.696;2024-03-02T03:38:17;11.4;63.5
78461;SHT31;67755;51.986;5.696;2024-03-02T03:40:46;11.4;63.2
78461;SHT31;67755;51.986;5.696;2024-03-02T03:43:14;11.3;63.3
78461;SHT31;67755;51.986;5.696;2024-03-02T03:45:43;11.3;63.6
78461;SHT31;67755;51.986;5.696;2024-03-02T03:48:11;11.3;63.8
78461;SHT31;67755;51.986;5.696;2024-03-02T03:50:40;11.3;64.2
78461;SHT31;67755;51.986;5.696;2024-03-02T03:53:09;11.3;63.2
78461;SHT31;67755;51.986;5.696;2024-03-02T03:55:37;11.3;63.4
78461;SHT31;67755;51.986;5.696;2024-03-02T03:58:06;11.3;63.7
78461;SHT31;67755;51.986;5.696;2024-03-02T04:00:35;11.3;63.7
78461;SHT31;67755;51.986;5.696;2024-03-02T04:03:03;11.3;63.3
78461;SHT31;67755;51.986;5.696;2024-03-02T04:05:34;11.3;63.8
78461;SHT31;67755;51.986;5.696;2024-03-02T04:08:03;11.3;64.0
78461;SHT31;67755;51.986;5.696;2024-03-02T04:10:31;11.3;64.1
78461;SHT31;67755;51.986;5.696;2024-03-02T04:13:00;11.3;64.1
78461;SHT31;67755;51.986;5.696;2024-03-02T04:15:29;11.3;63.5
78461;SHT31;67755;51.986;5.696;2024-03-02T04:17:57;11.3;63.5
78461;SHT31;67755;51.986;5.696;2024-03-02T04:20:26;11.3;63.6
78461;SHT31;67755;51.986;5.696;2024-03-02T04:22:54;11.2;63.7
78461;SHT31;67755;51.986;5.696;2024-03-02T04:25:23;11.2;63.7
78461;SHT31;67755;51.986;5.696;2024-03-02T04:27:53;11.2;63.5
78461;SHT31;67755;51.986;5.696;2024-03-02T04:30:22;11.2;63.3
78461;SHT31;67755;51.986;5.696;2024-03-02T04:32:51;11.2;63.2
78461;SHT31;67755;51.986;5.696;2024-03-02T04:35:20;11.2;63.1
78461;SHT31;67755;51.986;5.696;2024-03-02T04:37:55;11.2;63.1
78461;SHT31;67755;51.986;5.696;2024-03-02T04:40:24;11.2;63.4
78461;SHT31;67755;51.986;5.696;2024-03-02T04:42:52;11.2;63.0
78461;SHT31;67755;51.986;5.696;2024-03-02T04:45:23;11.2;62.5
78461;SHT31;67755;51.986;5.696;2024-03-02T04:47:52;11.2;61.8
78461;SHT31;67755;51.986;5.696;2024-03-02T04:50:20;11.1;62.3
78461;SHT31;67755;51.986;5.696;2024-03-02T04:52:49;11.1;62.6
78461;SHT31;67755;51.986;5.696;2024-03-02T04:55:17;11.1;61.9
78461;SHT31;67755;51.986;5.696;2024-03-02T04:57:53;11.1;62.5
78461;SHT31;67755;51.986;5.696;2024-03-02T05:00:23;11.1;62.7
78461;SHT31;67755;51.986;5.696;2024-03-02T05:02:51;11.1;62.6
78461;SHT31;67755;51.986;5.696;2024-03-02T05:05:21;11.1;62.0
78461;SHT31;67755;51.986;5.696;2024-03-02T05:07:50;11.1;62.4
78461;SHT31;67755;51.986;5.696;2024-03-02T05:10:19;11.1;62.3
78461;SHT31;67755;51.986;5.696;2024-03-02T05:12:48;11.1;62.5
78461;SHT31;67755;51.986;5.696;2024-03-02T05:15:27;11.1;61.7
78461;SHT31;67755;51.986;5.696;2024-03-02T05:17:56;11.0;62.2
78461;SHT31;67755;51.986;5.696;2024-03-02T05:20:27;11.0;62.1
78461;SHT31;67755;51.986;5.696;2024-03-02T05:22:56;11.0;61.7
78461;SHT31;67755;51.986;5.696;2024-03-02T05:25:24;11.0;61.9
78461;SHT31;67755;51.986;5.696;2024-03-02T05:27:53;11.0;61.8
78461;SHT31;67755;51.986;5.696;2024-03-02T05:30:22;11.0;61.7
78461;SHT31;67755;51.986;5.696;2024-03-02T05:32:52;10.9;61.5
78461;SHT31;67755;51.986;5.696;2024-03-02T05:35:25;10.9;61.9
78461;SHT31;67755;51.986;5.696;2024-03-02T05:37:53;10.9;62.0
78461;SHT31;67755;51.986;5.696;2024-03-02T05:40:22;10.9;62.2
78461;SHT31;67755;51.986;5.696;2024-03-02T05:42:50;10.9;62.1
78461;SHT31;67755;51.986;5.696;2024-03-02T05:45:19;10.9;62.3
78461;SHT31;67755;51.986;5.696;2024-03-02T05:47:47;10.9;62.3
78461;SHT31;67755;51.986;5.696;2024-03-02T05:50:16;10.8;62.9
78461;SHT31;67755;51.986;5.696;2024-03-02T05:52:46;10.8;62.8
78461;SHT31;67755;51.986;5.696;2024-03-02T05:55:15;10.8;62.1
78461;SHT31;67755;51.986;5.696;2024-03-02T05:57:43;10.8;62.3
78461;SHT31;67755;51.986;5.696;2024-03-02T06:00:21;10.8;62.6
78461;SHT31;67755;51.986;5.696;2024-03-02T06:02:49;10.8;62.3
78461;SHT31;67755;51.986;5.696;2024-03-02T06:05:18;10.8;61.6
78461;SHT31;67755;51.986;5.696;2024-03-02T06:07:48;10.8;61.2
78461;SHT31;67755;51.986;5.696;2024-03-02T06:10:18;10.8;61.3
78461;SHT31;67755;51.986;5.696;2024-03-02T06:12:47;10.8;61.1
78461;SHT31;67755;51.986;5.696;2024-03-02T06:15:16;10.8;61.2
78461;SHT31;67755;51.986;5.696;2024-03-02T06:17:45;10.8;61.2
78461;SHT31;67755;51.986;5.696;2024-03-02T06:20:18;10.8;61.0
78461;SHT31;67755;51.986;5.696;2024-03-02T06:22:48;10.8;61.1
78461;SHT31;67755;51.986;5.696;2024-03-02T06:25:18;10.8;61.1
78461;SHT31;67755;51.986;5.696;2024-03-02T06:27:46;10.8;60.9
78461;SHT31;67755;51.986;5.696;2024-03-02T06:30:15;10.8;60.8
78461;SHT31;67755;51.986;5.696;2024-03-02T06:32:44;10.8;60.5
78461;SHT31;67755;51.986;5.696;2024-03-02T06:35:14;10.7;60.1
78461;SHT31;67755;51.986;5.696;2024-03-02T06:37:46;10.7;60.8
78461;SHT31;67755;51.986;5.696;2024-03-02T06:40:15;10.7;61.5
78461;SHT31;67755;51.986;5.696;2024-03-02T06:42:45;10.7;61.9
78461;SHT31;67755;51.986;5.696;2024-03-02T06:45:14;10.7;61.7
78461;SHT31;67755;51.986;5.696;2024-03-02T06:47:42;10.7;60.5
78461;SHT31;67755;51.986;5.696;2024-03-02T06:50:11;10.7;60.8
78461;SHT31;67755;51.986;5.696;2024-03-02T06:52:44;10.7;60.9
78461;SHT31;67755;51.986;5.696;2024-03-02T06:55:13;10.7;60.7
78461;SHT31;67755;51.986;5.696;2024-03-02T06:57:42;10.7;60.0
78461;SHT31;67755;51.986;5.696;2024-03-02T07:00:11;10.7;59.6
78461;SHT31;67755;51.986;5.696;2024-03-02T07:02:43;10.7;59.4
78461;SHT31;67755;51.986;5.696;2024-03-02T07:05:15;10.7;60.3
78461;SHT31;67755;51.986;5.696;2024-03-02T07:07:43;10.7;60.9
78461;SHT31;67755;51.986;5.696;2024-03-02T07:10:12;10.7;60.4
78461;SHT31;67755;51.986;5.696;2024-03-02T07:12:40;10.6;60.9
78461;SHT31;67755;51.986;5.696;2024-03-02T07:15:11;10.6;61.0
78461;SHT31;67755;51.986;5.696;2024-03-02T07:17:52;10.6;61.0
78461;SHT31;67755;51.986;5.696;2024-03-02T07:20:22;10.6;60.7
78461;SHT31;67755;51.986;5.696;2024-03-02T07:22:50;10.6;61.4
78461;SHT31;67755;51.986;5.696;2024-03-02T07:25:21;10.6;61.2
78461;SHT31;67755;51.986;5.696;2024-03-02T07:27:50;10.6;60.8
78461;SHT31;67755;51.986;5.696;2024-03-02T07:30:19;10.6;61.8
78461;SHT31;67755;51.986;5.696;2024-03-02T07:32:50;10.6;61.5
78461;SHT31;67755;51.986;5.696;2024-03-02T07:35:20;10.6;61.5
78461;SHT31;67755;51.986;5.696;2024-03-02T07:37:54;10.6;61.6
78461;SHT31;67755;51.986;5.696;2024-03-02T07:40:25;10.6;61.8
78461;SHT31;67755;51.986;5.696;2024-03-02T07:42:55;10.6;61.5
78461;SHT31;67755;51.986;5.696;2024-03-02T07:45:24;10.6;62.2
78461;SHT31;67755;51.986;5.696;2024-03-02T07:47:53;10.6;62.0
78461;SHT31;67755;51.986;5.696;2024-03-02T07:50:21;10.6;62.5
78461;SHT31;67755;51.986;5.696;2024-03-02T07:52:52;10.6;62.9
78461;SHT31;67755;51.986;5.696;2024-03-02T07:55:20;10.6;63.1
78461;SHT31;67755;51.986;5.696;2024-03-02T07:57:50;10.6;62.5
78461;SHT31;67755;51.986;5.696;2024-03-02T08:00:19;10.6;63.3
78461;SHT31;67755;51.986;5.696;2024-03-02T08:02:49;10.7;62.8
78461;SHT31;67755;51.986;5.696;2024-03-02T08:05:19;10.7;62.5
78461;SHT31;67755;51.986;5.696;2024-03-02T08:07:49;10.7;61.9
78461;SHT31;67755;51.986;5.696;2024-03-02T08:10:20;10.8;62.6
78461;SHT31;67755;51.986;5.696;2024-03-02T08:12:48;10.8;61.6
78461;SHT31;67755;51.986;5.696;2024-03-02T08:15:17;10.8;62.3
78461;SHT31;67755;51.986;5.696;2024-03-02T08:17:47;10.9;61.5
78461;SHT31;67755;51.986;5.696;2024-03-02T08:20:18;10.9;61.5
78461;SHT31;67755;51.986;5.696;2024-03-02T08:22:47;10.9;60.9
78461;SHT31;67755;51.986;5.696;2024-03-02T08:25:18;11.0;61.4
78461;SHT31;67755;51.986;5.696;2024-03-02T08:27:46;11.0;61.2
78461;SHT31;67755;51.986;5.696;2024-03-02T08:30:15;11.1;61.9
78461;SHT31;67755;51.986;5.696;2024-03-02T08:32:45;11.1;60.6
78461;SHT31;67755;51.986;5.696;2024-03-02T08:35:14;11.1;60.5
78461;SHT31;67755;51.986;5.696;2024-03-02T08:37:43;11.1;60.2
78461;SHT31;67755;51.986;5.696;2024-03-02T08:40:12;11.2;60.0
78461;SHT31;67755;51.986;5.696;2024-03-02T08:42:42;11.2;60.6
78461;SHT31;67755;51.986;5.696;2024-03-02T08:45:14;11.2;60.0
78461;SHT31;67755;51.986;5.696;2024-03-02T08:47:45;11.2;59.0
78461;SHT31;67755;51.986;5.696;2024-03-02T08:50:15;11.2;59.9
78461;SHT31;67755;51.986;5.696;2024-03-02T08:52:44;11.2;59.6
78461;SHT31;67755;51.986;5.696;2024-03-02T08:55:12;11.3;60.0
78461;SHT31;67755;51.986;5.696;2024-03-02T08:57:41;11.3;60.5
78461;SHT31;67755;51.986;5.696;2024-03-02T09:00:11;11.3;59.0
78461;SHT31;67755;51.986;5.696;2024-03-02T09:02:39;11.3;58.0
78461;SHT31;67755;51.986;5.696;2024-03-02T09:05:08;11.3;57.0
78461;SHT31;67755;51.986;5.696;2024-03-02T09:07:37;11.3;60.6
78461;SHT31;67755;51.986;5.696;2024-03-02T09:10:07;11.3;58.8
78461;SHT31;67755;51.986;5.696;2024-03-02T09:12:37;11.4;58.6
78461;SHT31;67755;51.986;5.696;2024-03-02T09:15:07;11.4;59.0
78461;SHT31;67755;51.986;5.696;2024-03-02T09:17:36;11.4;57.1
78461;SHT31;67755;51.986;5.696;2024-03-02T09:20:05;11.4;56.9
78461;SHT31;67755;51.986;5.696;2024-03-02T09:22:33;11.4;57.6
78461;SHT31;67755;51.986;5.696;2024-03-02T09:25:02;11.4;56.8
78461;SHT31;67755;51.986;5.696;2024-03-02T09:27:31;11.5;58.1
78461;SHT31;67755;51.986;5.696;2024-03-02T09:29:59;11.5;57.7
78461;SHT31;67755;51.986;5.696;2024-03-02T09:32:28;11.5;58.0
78461;SHT31;67755;51.986;5.696;2024-03-02T09:34:57;11.6;57.9
78461;SHT31;67755;51.986;5.696;2024-03-02T09:37:26;11.6;58.4
78461;SHT31;67755;51.986;5.696;2024-03-02T09:39:55;11.7;57.7
78461;SHT31;67755;51.986;5.696;2024-03-02T09:42:24;11.7;57.2
78461;SHT31;67755;51.986;5.696;2024-03-02T09:44:53;11.8;56.0
78461;SHT31;67755;51.986;5.696;2024-03-02T09:47:22;11.8;56.5
78461;SHT31;67755;51.986;5.696;2024-03-02T09:49:50;11.9;56.7
78461;SHT31;67755;51.986;5.696;2024-03-02T09:52:21;11.9;55.5
78461;SHT31;67755;51.986;5.696;2024-03-02T09:54:52;11.9;55.5
78461;SHT31;67755;51.986;5.696;2024-03-02T09:57:21;12.0;56.1
78461;SHT31;67755;51.986;5.696;2024-03-02T09:59:50;12.0;55.8
78461;SHT31;67755;51.986;5.696;2024-03-02T10:02:18;12.1;56.6
78461;SHT31;67755;51.986;5.696;2024-03-02T10:04:49;12.1;56.1
78461;SHT31;67755;51.986;5.696;2024-03-02T10:07:18;12.2;56.0
78461;SHT31;67755;51.986;5.696;2024-03-02T10:09:48;12.2;55.3
78461;SHT31;67755;51.986;5.696;2024-03-02T10:12:19;12.3;55.1
78461;SHT31;67755;51.986;5.696;2024-03-02T10:14:49;12.3;55.8
78461;SHT31;67755;51.986;5.696;2024-03-02T10:17:19;12.4;56.4
78461;SHT31;67755;51.986;5.696;2024-03-02T10:19:47;12.4;57.0
78461;SHT31;67755;51.986;5.696;2024-03-02T10:22:16;12.4;55.5
78461;SHT31;67755;51.986;5.696;2024-03-02T10:24:45;12.5;54.8
78461;SHT31;67755;51.986;5.696;2024-03-02T10:27:19;12.5;54.7
78461;SHT31;67755;51.986;5.696;2024-03-02T10:29:50;12.6;52.6
78461;SHT31;67755;51.986;5.696;2024-03-02T10:32:22;12.6;54.6
78461;SHT31;67755;51.986;5.696;2024-03-02T10:34:51;12.6;53.8
78461;SHT31;67755;51.986;5.696;2024-03-02T10:37:21;12.7;54.2
78461;SHT31;67755;51.986;5.696;2024-03-02T10:39:49;12.7;54.4
78461;SHT31;67755;51.986;5.696;2024-03-02T10:42:22;12.8;53.5
78461;SHT31;67755;51.986;5.696;2024-03-02T10:44:52;12.8;52.7
78461;SHT31;67755;51.986;5.696;2024-03-02T10:47:21;12.9;53.3
78461;SHT31;67755;51.986;5.696;2024-03-02T10:49:54;12.9;53.0
78461;SHT31;67755;51.986;5.696;2024-03-02T10:52:23;13.0;52.3
78461;SHT31;67755;51.986;5.696;2024-03-02T10:54:52;13.1;51.8
78461;SHT31;67755;51.986;5.696;2024-03-02T10:57:22;13.1;52.2
78461;SHT31;67755;51.986;5.696;2024-03-02T10:59:56;13.2;51.1
78461;SHT31;67755;51.986;5.696;2024-03-02T11:02:29;13.2;51.2
78461;SHT31;67755;51.986;5.696;2024-03-02T11:05:02;13.2;51.4
78461;SHT31;67755;51.986;5.696;2024-03-02T11:07:37;13.3;51.7
78461;SHT31;67755;51.986;5.696;2024-03-02T11:10:08;13.3;51.2
78461;SHT31;67755;51.986;5.696;2024-03-02T11:12:50;13.4;50.6
78461;SHT31;67755;51.986;5.696;2024-03-02T11:15:17;13.4;51.0
78461;SHT31;67755;51.986;5.696;2024-03-02T11:17:48;13.5;52.4
78461;SHT31;67755;51.986;5.696;2024-03-02T11:20:20;13.5;50.8
78461;SHT31;67755;51.986;5.696;2024-03-02T11:22:53;13.6;49.2
78461;SHT31;67755;51.986;5.696;2024-03-02T11:25:26;13.6;48.8
78461;SHT31;67755;51.986;5.696;2024-03-02T11:28:02;13.6;49.2
78461;SHT31;67755;51.986;5.696;2024-03-02T11:30:50;13.7;47.3
78461;SHT31;67755;51.986;5.696;2024-03-02T11:33:26;13.7;47.2
78461;SHT31;67755;51.986;5.696;2024-03-02T11:35:58;13.7;47.3
78461;SHT31;67755;51.986;5.696;2024-03-02T11:38:32;13.8;47.4
78461;SHT31;67755;51.986;5.696;2024-03-02T11:41:03;13.8;47.7
78461;SHT31;67755;51.986;5.696;2024-03-02T11:43:37;13.8;47.3
78461;SHT31;67755;51.986;5.696;2024-03-02T11:46:08;13.8;48.2
78461;SHT31;67755;51.986;5.696;2024-03-02T11:48:39;13.9;48.6
78461;SHT31;67755;51.986;5.696;2024-03-02T11:51:11;13.9;49.6
78461;SHT31;67755;51.986;5.696;2024-03-02T11:53:43;13.9;49.2
78461;SHT31;67755;51.986;5.696;2024-03-02T11:56:14;13.9;49.7
78461;SHT31;67755;51.986;5.696;2024-03-02T11:58:43;14.0;50.7
78461;SHT31;67755;51.986;5.696;2024-03-02T12:01:14;14.0;49.7
78461;SHT31;67755;51.986;5.696;2024-03-02T12:03:43;14.0;48.8
78461;SHT31;67755;51.986;5.696;2024-03-02T12:06:11;14.0;49.1
78461;SHT31;67755;51.986;5.696;2024-03-02T12:08:41;14.1;49.1
78461;SHT31;67755;51.986;5.696;2024-03-02T12:11:13;14.1;49.2
78461;SHT31;67755;51.986;5.696;2024-03-02T12:13:55;14.1;50.2
78461;SHT31;67755;51.986;5.696;2024-03-02T12:16:25;14.2;50.4
78461;SHT31;67755;51.986;5.696;2024-03-02T12:18:54;14.2;49.2
78461;SHT31;67755;51.986;5.696;2024-03-02T12:21:23;14.3;48.7
78461;SHT31;67755;51.986;5.696;2024-03-02T12:23:52;14.3;48.7
78461;SHT31;67755;51.986;5.696;2024-03-02T12:26:22;14.3;48.6
78461;SHT31;67755;51.986;5.696;2024-03-02T12:28:51;14.4;48.1
78461;SHT31;67755;51.986;5.696;2024-03-02T12:31:25;14.5;47.1
78461;SHT31;67755;51.986;5.696;2024-03-02T12:33:54;14.5;46.7
78461;SHT31;67755;51.986;5.696;2024-03-02T12:36:26;14.6;46.8
78461;SHT31;67755;51.986;5.696;2024-03-02T12:38:55;14.6;47.8
78461;SHT31;67755;51.986;5.696;2024-03-02T12:41:24;14.7;47.4
78461;SHT31;67755;51.986;5.696;2024-03-02T12:43:52;14.7;47.1
78461;SHT31;67755;51.986;5.696;2024-03-02T12:46:21;14.7;46.9
78461;SHT31;67755;51.986;5.696;2024-03-02T12:48:50;14.8;47.0
78461;SHT31;67755;51.986;5.696;2024-03-02T12:51:19;14.8;47.7
78461;SHT31;67755;51.986;5.696;2024-03-02T12:53:56;14.8;45.2
78461;SHT31;67755;51.986;5.696;2024-03-02T12:56:25;14.8;46.0
78461;SHT31;67755;51.986;5.696;2024-03-02T12:58:55;14.8;44.1
78461;SHT31;67755;51.986;5.696;2024-03-02T13:01:26;14.8;46.0
78461;SHT31;67755;51.986;5.696;2024-03-02T13:03:55;14.8;46.0
78461;SHT31;67755;51.986;5.696;2024-03-02T13:06:25;14.8;46.1
78461;SHT31;67755;51.986;5.696;2024-03-02T13:08:55;14.8;46.3
78461;SHT31;67755;51.986;5.696;2024-03-02T13:11:24;14.8;45.3
78461;SHT31;67755;51.986;5.696;2024-03-02T13:13:53;14.8;46.5
78461;SHT31;67755;51.986;5.696;2024-03-02T13:16:22;14.9;45.2
78461;SHT31;67755;51.986;5.696;2024-03-02T13:18:52;14.9;45.8
78461;SHT31;67755;51.986;5.696;2024-03-02T13:21:21;14.9;46.1
78461;SHT31;67755;51.986;5.696;2024-03-02T13:23:49;14.9;46.0
78461;SHT31;67755;51.986;5.696;2024-03-02T13:26:18;14.9;46.6
78461;SHT31;67755;51.986;5.696;2024-03-02T13:28:46;14.9;46.5
78461;SHT31;67755;51.986;5.696;2024-03-02T13:31:15;15.0;46.1
78461;SHT31;67755;51.986;5.696;2024-03-02T13:33:44;15.0;46.5
78461;SHT31;67755;51.986;5.696;2024-03-02T13:36:13;15.0;46.1
78461;SHT31;67755;51.986;5.696;2024-03-02T13:38:41;15.1;45.7
78461;SHT31;67755;51.986;5.696;2024-03-02T13:41:10;15.1;45.2
78461;SHT31;67755;51.986;5.696;2024-03-02T13:43:41;15.1;46.6
78461;SHT31;67755;51.986;5.696;2024-03-02T13:46:13;15.2;46.5
78461;SHT31;67755;51.986;5.696;2024-03-02T13:48:42;15.2;45.7
78461;SHT31;67755;51.986;5.696;2024-03-02T13:51:10;15.2;45.5
78461;SHT31;67755;51.986;5.696;2024-03-02T13:53:39;15.2;45.3
78461;SHT31;67755;51.986;5.696;2024-03-02T13:56:08;15.3;45.9
78461;SHT31;67755;51.986;5.696;2024-03-02T13:58:36;15.3;46.8
78461;SHT31;67755;51.986;5.696;2024-03-02T14:01:05;15.3;46.1
78461;SHT31;67755;51.986;5.696;2024-03-02T14:03:36;15.4;46.3
78461;SHT31;67755;51.986;5.696;2024-03-02T14:06:05;15.4;46.3
78461;SHT31;67755;51.986;5.696;2024-03-02T14:08:34;15.4;47.0
78461;SHT31;67755;51.986;5.696;2024-03-02T14:11:02;15.4;45.7
78461;SHT31;67755;51.986;5.696;2024-03-02T14:13:33;15.4;46.4
78461;SHT31;67755;51.986;5.696;2024-03-02T14:16:01;15.4;46.3
78461;SHT31;67755;51.986;5.696;2024-03-02T14:18:30;15.4;45.9
78461;SHT31;67755;51.986;5.696;2024-03-02T14:20:58;15.4;45.6
78461;SHT31;67755;51.986;5.696;2024-03-02T14:23:27;15.4;45.9
78461;SHT31;67755;51.986;5.696;2024-03-02T14:25:56;15.4;45.1
78461;SHT31;67755;51.986;5.696;2024-03-02T14:28:26;15.4;45.0
78461;SHT31;67755;51.986;5.696;2024-03-02T14:30:54;15.4;45.0
78461;SHT31;67755;51.986;5.696;2024-03-02T14:33:25;15.4;45.3
78461;SHT31;67755;51.986;5.696;2024-03-02T14:35:53;15.4;45.7
78461;SHT31;67755;51.986;5.696;2024-03-02T14:38:23;15.3;46.1
78461;SHT31;67755;51.986;5.696;2024-03-02T14:40:53;15.3;46.5
78461;SHT31;67755;51.986;5.696;2024-03-02T14:43:22;15.3;44.5
78461;SHT31;67755;51.986;5.696;2024-03-02T14:45:50;15.3;44.7
78461;SHT31;67755;51.986;5.696;2024-03-02T14:48:20;15.3;45.4
78461;SHT31;67755;51.986;5.696;2024-03-02T14:50:51;15.3;45.7
78461;SHT31;67755;51.986;5.696;2024-03-02T14:53:19;15.3;45.7
78461;SHT31;67755;51.986;5.696;2024-03-02T14:55:50;15.3;45.8
78461;SHT31;67755;51.986;5.696;2024-03-02T14:58:19;15.3;44.5
78461;SHT31;67755;51.986;5.696;2024-03-02T15:00:47;15.3;45.9
78461;SHT31;67755;51.986;5.696;2024-03-02T15:03:18;15.3;45.5
78461;SHT31;67755;51.986;5.696;2024-03-02T15:05:47;15.2;46.0
78461;SHT31;67755;51.986;5.696;2024-03-02T15:08:18;15.2;45.1
78461;SHT31;67755;51.986;5.696;2024-03-02T15:10:46;15.2;45.6
78461;SHT31;67755;51.986;5.696;2024-03-02T15:13:17;15.2;46.0
78461;SHT31;67755;51.986;5.696;2024-03-02T15:15:46;15.2;46.3
78461;SHT31;67755;51.986;5.696;2024-03-02T15:18:14;15.2;46.9
78461;SHT31;67755;51.986;5.696;2024-03-02T15:20:43;15.2;47.2
78461;SHT31;67755;51.986;5.696;2024-03-02T15:23:11;15.1;47.2
78461;SHT31;67755;51.986;5.696;2024-03-02T15:25:41;15.1;47.4
78461;SHT31;67755;51.986;5.696;2024-03-02T15:28:10;15.1;48.6
78461;SHT31;67755;51.986;5.696;2024-03-02T15:30:39;15.1;48.6
78461;SHT31;67755;51.986;5.696;2024-03-02T15:33:08;15.1;48.2
78461;SHT31;67755;51.986;5.696;2024-03-02T15:35:36;15.1;49.0
78461;SHT31;67755;51.986;5.696;2024-03-02T15:38:05;15.1;50.0
78461;SHT31;67755;51.986;5.696;2024-03-02T15:40:35;15.1;48.5
78461;SHT31;67755;51.986;5.696;2024-03-02T15:43:04;15.1;48.9
78461;SHT31;67755;51.986;5.696;2024-03-02T15:45:32;15.1;48.4
78461;SHT31;67755;51.986;5.696;2024-03-02T15:48:01;15.1;49.5
78461;SHT31;67755;51.986;5.696;2024-03-02T15:50:30;15.1;49.6
78461;SHT31;67755;51.986;5.696;2024-03-02T15:53:00;15.1;50.0
78461;SHT31;67755;51.986;5.696;2024-03-02T15:55:32;15.1;50.5
78461;SHT31;67755;51.986;5.696;2024-03-02T15:58:04;15.1;50.5
78461;SHT31;67755;51.986;5.696;2024-03-02T16:00:33;15.1;51.5
78461;SHT31;67755;51.986;5.696;2024-03-02T16:03:03;15.1;51.1
78461;SHT31;67755;51.986;5.696;2024-03-02T16:05:31;15.1;50.1
78461;SHT31;67755;51.986;5.696;2024-03-02T16:08:00;15.1;49.7
78461;SHT31;67755;51.986;5.696;2024-03-02T16:10:29;15.0;50.6
78461;SHT31;67755;51.986;5.696;2024-03-02T16:12:58;15.0;51.0
78461;SHT31;67755;51.986;5.696;2024-03-02T16:15:27;15.0;50.8
78461;SHT31;67755;51.986;5.696;2024-03-02T16:17:56;15.0;51.6